Time;durP1;ratioP1;P1;durP2;ratioP2;P2;SDS_P1;SDS_P2;PMS_P1;PMS_P2;Temp;Humidity;BMP_temperature;BMP_pressure;BME280_temperature;BME280_humidity;BME280_pressure;Samples;Min_cycle;Max_cycle;Signal;HPM_P1;HPM_P2
2021/04/04 00:01:27;;;;;;;;;25.33;22.83;;;;;10.28;43.51;98957.44;5579444;28;5779650;-91
2021/04/04 00:04:32;;;;;;;;;30.00;26.33;;;;;10.77;43.55;99018.66;5623730;28;5775120;-91
2021/04/04 00:08:16;;;;;;;;;26.71;25.29;;;;;11.02;43.63;99048.34;5592304;28;5802297;-90
2021/04/04 00:11:24;;;;;;;;;27.57;24.00;;;;;10.39;43.47;98964.00;5549533;28;6521006;-90
2021/04/04 00:14:29;;;;;;;;;29.00;26.00;;;;;10.72;43.52;98993.41;5568477;28;4238794;-91
2021/04/04 00:17:37;;;;;;;;;28.71;26.14;;;;;10.71;43.49;99002.53;5570269;28;5784553;-91
2021/04/04 00:20:42;;;;;;;;;27.13;24.00;;;;;11.15;43.07;99052.78;5535494;28;6560704;-91
2021/04/04 00:23:49;;;;;;;;;28.86;25.86;;;;;11.15;43.38;99050.06;5600260;28;6503342;-91
2021/04/04 00:26:54;;;;;;;;;25.33;24.00;;;;;10.90;42.97;99025.00;5593777;28;4402253;-90
2021/04/04 00:30:09;;;;;;;;;26.43;24.43;;;;;10.97;43.17;99029.28;5564456;28;5798152;-91
2021/04/04 00:33:16;;;;;;;;;24.67;22.00;;;;;10.92;43.40;99017.50;5569268;28;5776195;-90
2021/04/04 00:36:25;;;;;;;;;30.29;27.57;;;;;9.68;43.12;98834.13;5568085;28;5804309;-90
2021/04/04 00:39:30;;;;;;;;;27.00;26.00;;;;;11.23;43.03;99061.44;5566726;28;4335658;-90
2021/04/04 00:42:33;;;;;;;;;29.00;25.00;;;;;11.21;43.07;99050.03;5550773;28;4510626;-90
2021/04/04 00:46:17;;;;;;;;;30.14;26.86;;;;;11.18;43.19;99058.59;5570935;28;5798079;-90
2021/04/04 00:49:25;;;;;;;;;29.57;28.29;;;;;10.57;43.14;99000.97;5588258;28;6529295;-91
2021/04/04 00:52:36;;;;;;;;;34.00;28.00;;;;;10.86;43.38;99035.38;5572942;28;6548112;-90
2021/04/04 00:56:48;;;;;;;;;29.29;27.43;;;;;10.92;43.67;99066.88;5591367;28;6505370;-90
2021/04/04 00:59:56;;;;;;;;;31.43;27.43;;;;;10.32;44.02;98977.50;5572148;28;5796111;-91
2021/04/04 01:03:05;;;;;;;;;31.67;28.17;;;;;9.32;43.83;98811.38;5593591;28;5776156;-90
2021/04/04 01:06:08;;;;;;;;;31.00;27.67;;;;;10.74;44.19;99058.72;5573136;28;4549150;-91
2021/04/04 01:09:14;;;;;;;;;35.86;31.00;;;;;10.42;43.95;99018.28;5596879;28;6519944;-91
2021/04/04 01:12:30;;;;;;;;;33.80;29.60;;;;;10.84;44.04;99072.56;5562393;28;6568841;-90
2021/04/04 01:15:38;;;;;;;;;34.33;31.33;;;;;10.79;44.25;99083.16;5563439;28;4485634;-90
2021/04/04 01:18:54;;;;;;;;;34.33;30.67;;;;;10.46;44.28;99018.66;5594195;28;5758484;-90
2021/04/04 01:22:17;;;;;;;;;30.71;28.71;;;;;10.72;44.49;99079.69;5590397;28;5781437;-90
2021/04/04 01:25:31;;;;;;;;;30.71;28.29;;;;;10.58;44.42;99070.84;5584792;28;5781478;-91
2021/04/04 01:28:43;;;;;;;;;32.71;30.00;;;;;9.52;44.69;98886.63;5595414;28;6563739;-90
2021/04/04 01:31:52;;;;;;;;;29.14;27.29;;;;;10.46;44.41;99045.63;5577205;28;6516807;-90
2021/04/04 01:34:58;;;;;;;;;32.00;29.00;;;;;10.54;44.40;99061.56;5559296;28;6554279;-90
2021/04/04 01:38:11;;;;;;;;;31.83;30.00;;;;;10.62;44.53;99074.78;5572014;28;5784542;-90
2021/04/04 01:41:25;;;;;;;;;30.29;29.00;;;;;10.42;44.68;99045.25;5569709;28;5789838;-91
2021/04/04 01:44:32;;;;;;;;;34.00;26.00;;;;;10.01;44.50;98985.56;5574657;28;4210658;-90
2021/04/04 01:47:39;;;;;;;;;34.29;28.00;;;;;10.69;44.26;99086.34;5565528;28;6538662;-90
2021/04/04 01:50:44;;;;;;;;;28.00;24.33;;;;;10.62;44.43;99074.78;5554397;28;3924207;-90
2021/04/04 01:53:52;;;;;;;;;27.71;24.29;;;;;10.35;44.35;99051.72;5586327;28;6516803;-90
2021/04/04 01:57:02;;;;;;;;;28.29;25.71;;;;;10.69;44.34;99080.13;5591886;28;5812648;-90
2021/04/04 02:00:11;;;;;;;;;32.67;29.33;;;;;10.50;44.31;99076.53;5567365;28;4585615;-90
2021/04/04 02:03:18;;;;;;;;;29.00;27.29;;;;;10.53;44.54;99076.06;5600509;28;6507432;-90
2021/04/04 02:06:23;;;;;;;;;29.29;25.00;;;;;10.24;44.69;99036.22;5584528;28;6566838;-91
2021/04/04 02:09:32;;;;;;;;;27.29;26.71;;;;;9.93;44.67;98992.00;5597684;28;5798195;-90
2021/04/04 02:12:40;;;;;;;;;29.71;26.00;;;;;10.26;44.62;99039.56;5582254;28;6535561;-91
2021/04/04 02:15:48;;;;;;;;;27.71;24.00;;;;;10.41;44.57;99064.31;5596161;28;6512624;-91
2021/04/04 02:18:58;;;;;;;;;30.71;24.29;;;;;10.55;44.70;99086.66;5604915;28;6541818;-90
2021/04/04 02:22:03;;;;;;;;;28.83;26.83;;;;;10.65;44.53;99101.28;5563396;28;5773021;-90
2021/04/04 02:29:45;;;;;;;;;25.00;23.00;;;;;10.47;44.43;99076.94;5582575;28;5796496;-91
2021/04/04 02:33:01;;;;;;;;;28.00;24.71;;;;;10.70;44.42;99109.56;5589055;28;6545925;-91
2021/04/04 02:36:09;;;;;;;;;27.86;27.00;;;;;10.72;44.45;99117.44;5565752;28;5780332;-90
2021/04/04 02:39:24;;;;;;;;;28.86;26.00;;;;;10.70;44.56;99114.94;5579190;28;6533518;-91
2021/04/04 02:42:30;;;;;;;;;31.00;26.29;;;;;10.48;44.64;99066.97;5576531;28;6553225;-90
2021/04/04 02:45:43;;;;;;;;;25.14;22.00;;;;;10.61;44.56;99093.84;5596002;28;5782442;-90
2021/04/04 02:48:55;;;;;;;;;30.50;26.33;;;;;10.22;44.42;99039.13;5583014;28;5787662;-90
2021/04/04 02:52:06;;;;;;;;;30.70;27.50;;;;;10.75;44.45;99134.00;5571537;28;6538998;-91
2021/04/04 02:55:24;;;;;;;;;29.71;28.00;;;;;10.73;44.40;99094.81;5593514;28;5787679;-90
2021/04/04 02:58:34;;;;;;;;;30.00;25.71;;;;;10.28;44.68;99054.44;5592877;28;5800302;-90
2021/04/04 03:01:45;;;;;;;;;26.00;24.00;;;;;10.73;44.66;99111.00;5589047;28;5802280;-90
2021/04/04 03:04:56;;;;;;;;;28.20;24.50;;;;;10.29;44.60;99058.81;5599929;28;5761575;-91
2021/04/04 03:08:07;;;;;;;;;28.86;25.00;;;;;10.79;44.71;99119.06;5608682;28;5815272;-91
2021/04/04 03:11:17;;;;;;;;;26.86;23.14;;;;;10.33;44.39;99051.94;5585412;28;5782465;-91
2021/04/04 03:14:26;;;;;;;;;26.29;24.29;;;;;9.50;44.34;98921.81;5594594;28;6504296;-90
2021/04/04 03:17:36;;;;;;;;;28.86;27.14;;;;;10.57;44.17;99084.53;5584749;28;6518907;-91
2021/04/04 03:21:19;;;;;;;;;28.70;26.00;;;;;10.88;44.11;99127.72;5584878;28;6519909;-91
2021/04/04 03:24:31;;;;;;;;;26.57;22.57;;;;;10.56;44.18;99086.41;5587361;28;5799133;-91
2021/04/04 03:27:35;;;;;;;;;22.00;19.75;;;;;10.95;43.41;99128.47;5588813;28;3235723;-91
2021/04/04 03:30:53;;;;;;;;;23.67;22.33;;;;;10.97;43.53;99126.41;5580792;28;5787687;-90
2021/04/04 03:33:59;;;;;;;;;22.00;19.00;;;;;9.53;42.91;98890.94;5551462;28;4585659;-91
2021/04/04 03:37:05;;;;;;;;;22.29;19.00;;;;;11.05;42.72;99131.53;5573825;28;6482434;-90
2021/04/04 03:40:12;;;;;;;;;16.33;14.33;;;;;9.97;42.36;98960.09;5593941;28;5731450;-91
2021/04/04 03:43:22;;;;;;;;;20.00;17.67;;;;;11.11;41.62;99132.53;5571856;28;5724094;-91
2021/04/04 03:46:33;;;;;;;;;18.33;16.67;;;;;10.74;41.57;99088.41;5567840;28;5742824;-91
2021/04/04 03:49:39;;;;;;;;;20.57;16.00;;;;;10.95;41.66;99101.50;5557769;28;6502257;-91
2021/04/04 03:52:48;;;;;;;;;20.67;17.00;;;;;11.18;41.69;99133.31;5592078;28;5745989;-91
2021/04/04 03:55:58;;;;;;;;;15.17;14.17;;;;;10.90;41.91;99106.72;5626583;28;5699147;-91
2021/04/04 03:59:07;;;;;;;;;16.50;14.50;;;;;10.99;41.10;99104.63;5583591;28;5729296;-90
2021/04/04 04:02:16;;;;;;;;;17.00;15.33;;;;;11.16;41.10;99136.22;5588545;28;5722036;-91
2021/04/04 04:05:23;;;;;;;;;15.33;14.00;;;;;11.12;40.94;99140.41;5581039;28;4975586;-91
2021/04/04 04:08:31;;;;;;;;;18.17;16.00;;;;;10.06;40.96;98961.50;5596767;28;5735636;-90
2021/04/04 04:11:38;;;;;;;;;15.67;14.67;;;;;11.18;41.12;99141.41;5586458;28;4258556;-91
2021/04/04 04:14:44;;;;;;;;;15.17;13.00;;;;;10.69;40.59;99074.75;5583890;28;4958640;-91
2021/04/04 04:17:50;;;;;;;;;13.50;12.50;;;;;11.20;40.43;99147.41;5593638;28;5686613;-91
2021/04/04 04:20:55;;;;;;;;;12.00;11.00;;;;;10.49;40.43;99042.50;5578076;28;4991992;-91
2021/04/04 04:24:04;;;;;;;;;13.67;12.17;;;;;10.86;40.35;99141.41;5593763;28;5704363;-90
2021/04/04 04:27:10;;;;;;;;;9.00;8.00;;;;;11.09;40.04;99148.13;5592090;28;4312741;-90
2021/04/04 04:30:13;;;;;;;;;8.60;8.00;;;;;11.22;39.96;99156.09;5591828;28;4880386;-90
2021/04/04 04:33:21;;;;;;;;;11.00;11.00;;;;;11.15;39.91;99153.44;5576521;28;3721108;-90
2021/04/04 04:36:31;;;;;;;;;8.78;7.56;;;;;9.24;39.83;98859.22;5591388;28;4880743;-90
2021/04/04 04:39:38;;;;;;;;;9.20;9.00;;;;;10.82;39.91;99121.31;5585953;28;4884522;-90
2021/04/04 04:42:43;;;;;;;;;9.00;8.17;;;;;10.80;39.88;99103.69;5567545;28;4164914;-90
2021/04/04 04:45:47;;;;;;;;;8.83;8.33;;;;;11.04;39.90;99158.75;5570832;28;4858470;-89
2021/04/04 04:48:51;;;;;;;;;8.83;8.33;;;;;11.13;39.54;99160.13;5581216;28;4865828;-88
2021/04/04 04:51:56;;;;;;;;;8.00;8.00;;;;;11.06;39.43;99132.34;5586841;28;4869997;-89
2021/04/04 04:55:01;;;;;;;;;9.40;7.40;;;;;10.97;39.59;99121.00;5605872;28;4277294;-89
2021/04/04 04:58:05;;;;;;;;;8.80;6.40;;;;;11.08;39.63;99135.66;5602556;28;4873099;-88
2021/04/04 05:01:12;;;;;;;;;9.00;8.00;;;;;11.26;39.63;99160.84;5579003;28;4867848;-89
2021/04/04 05:04:16;;;;;;;;;10.00;7.00;;;;;11.03;39.53;99138.19;5597013;28;4896024;-89
2021/04/04 05:07:21;;;;;;;;;8.00;7.00;;;;;11.43;39.42;99161.13;5579616;28;4874536;-88
2021/04/04 05:10:27;;;;;;;;;9.00;8.00;;;;;11.25;39.17;99196.97;5571961;28;4865908;-89
2021/04/04 05:13:39;;;;;;;;;9.78;8.22;;;;;11.43;39.04;99169.25;5606339;28;5614749;-89
2021/04/04 05:16:43;;;;;;;;;8.20;6.80;;;;;11.38;39.27;99165.53;5566910;28;4851258;-89
2021/04/04 05:19:49;;;;;;;;;8.00;7.40;;;;;11.02;39.06;99126.56;5578155;28;4862762;-89
2021/04/04 05:22:52;;;;;;;;;9.00;7.60;;;;;10.90;39.31;99101.34;5589774;28;4871391;-90
2021/04/04 05:26:00;;;;;;;;;9.80;8.80;;;;;11.01;39.29;99092.53;5591401;28;4912729;-90
2021/04/04 05:29:05;;;;;;;;;7.00;7.00;;;;;11.34;39.24;99161.63;5591520;28;4857456;-88
2021/04/04 05:32:11;;;;;;;;;8.00;7.00;;;;;11.15;38.75;99131.84;5601049;28;4854322;-89
2021/04/04 05:35:18;;;;;;;;;8.00;8.00;;;;;11.49;39.21;99173.72;5635485;28;4870023;-89
2021/04/04 05:38:27;;;;;;;;;10.00;8.80;;;;;11.23;39.51;99139.72;5632613;28;4902333;-89
2021/04/04 05:41:36;;;;;;;;;9.00;8.00;;;;;11.56;39.07;99184.50;5570948;28;4851198;-89
2021/04/04 05:44:44;;;;;;;;;9.00;7.00;;;;;10.95;39.19;99087.19;5594067;28;4862671;-90
2021/04/04 05:47:59;;;;;;;;;10.17;9.00;;;;;11.67;39.23;99214.31;5591542;28;4902256;-90
2021/04/04 05:51:28;;;;;;;;;7.00;6.00;;;;;11.69;38.87;99182.50;5583860;28;4854323;-90
2021/04/04 05:55:13;;;;;;;;;7.00;7.00;;;;;11.75;38.36;99196.19;5596273;28;4419011;-90
2021/04/04 05:58:26;;;;;;;;;8.83;7.83;;;;;11.52;38.26;99145.47;5572859;28;4880416;-91
2021/04/04 06:02:07;;;;;;;;;5.00;5.00;;;;;11.80;38.56;99199.88;5576916;28;4150338;-91
2021/04/04 06:05:48;;;;;;;;;7.00;6.20;;;;;11.67;38.43;99199.97;5537575;28;4148121;-92
2021/04/04 06:09:08;;;;;;;;;9.00;8.00;;;;;11.60;38.54;99185.69;5556072;28;4879389;-91
2021/04/04 06:12:24;;;;;;;;;9.00;8.00;;;;;11.54;38.69;99182.00;5596334;28;4870973;-91
2021/04/04 06:15:42;;;;;;;;;8.00;7.00;;;;;11.84;38.34;99211.91;5589949;28;4145497;-92
2021/04/04 06:19:13;;;;;;;;;8.83;8.00;;;;;11.41;38.16;99157.81;5610955;28;4886689;-91
2021/04/04 06:22:24;;;;;;;;;7.00;6.80;;;;;11.61;38.10;99158.47;5599854;28;4861634;-91
2021/04/04 06:25:43;;;;;;;;;11.00;9.00;;;;;11.94;38.21;99212.22;5603422;28;4902629;-91
2021/04/04 06:32:29;;;;;;;;;7.75;6.00;;;;;11.86;38.04;99201.72;5623138;28;4154347;-92
2021/04/04 06:35:38;;;;;;;;;6.40;6.00;;;;;11.84;37.96;99179.47;5585003;28;4853312;-91
2021/04/04 06:43:01;;;;;;;;;8.60;6.60;;;;;11.66;37.89;99141.59;5602185;28;4854339;-92
2021/04/04 06:46:18;;;;;;;;;6.60;6.00;;;;;10.58;37.57;98991.84;5615887;28;4856469;-90
2021/04/04 06:49:34;;;;;;;;;9.00;8.00;;;;;12.17;37.88;99195.34;5588095;28;4862664;-90
2021/04/04 06:53:03;;;;;;;;;10.00;10.00;;;;;12.46;37.12;99204.63;5599249;28;4940790;-90
2021/04/04 06:56:18;;;;;;;;;9.56;8.89;;;;;12.11;36.95;99134.94;5611676;28;5598039;-90
2021/04/04 06:59:32;;;;;;;;;10.33;10.33;;;;;12.06;36.61;99088.84;5596269;28;5658568;-90
2021/04/04 07:02:47;;;;;;;;;10.83;10.83;;;;;13.22;36.21;99199.44;5591105;28;5682435;-90
2021/04/04 07:06:05;;;;;;;;;11.00;11.00;;;;;13.44;35.80;99184.28;5591767;28;5687710;-90
2021/04/04 07:09:47;;;;;;;;;13.50;10.83;;;;;13.44;35.46;99151.81;5590773;28;5689745;-90
2021/04/04 07:13:21;;;;;;;;;17.67;17.33;;;;;12.51;35.19;98988.41;5589943;28;5757471;-91
2021/04/04 07:16:40;;;;;;;;;12.67;12.50;;;;;13.71;35.02;99183.88;5589229;28;5698098;-90
2021/04/04 07:20:13;;;;;;;;;11.20;10.00;;;;;13.49;34.56;99163.84;5588970;28;4940860;-90
2021/04/04 07:23:45;;;;;;;;;14.00;13.00;;;;;13.85;35.14;99232.19;5594519;28;4956453;-90
2021/04/04 07:27:05;;;;;;;;;10.00;9.40;;;;;13.43;34.64;99171.00;5595655;28;4926199;-90
2021/04/04 07:30:33;;;;;;;;;12.00;9.60;;;;;13.72;34.73;99234.31;5582116;28;4913695;-90
2021/04/04 07:33:51;;;;;;;;;11.00;10.00;;;;;12.91;34.58;99153.66;5578121;28;4951265;-90
2021/04/04 07:37:03;;;;;;;;;12.60;9.60;;;;;13.81;34.49;99243.75;5589226;28;4943925;-90
2021/04/04 07:40:14;;;;;;;;;10.00;10.00;;;;;13.27;33.74;99169.78;5579348;28;4930413;-89
2021/04/04 07:43:28;;;;;;;;;7.80;7.00;;;;;13.37;34.27;99190.91;5628365;28;4872097;-89
2021/04/04 07:46:41;;;;;;;;;9.75;9.75;;;;;13.34;34.66;99181.34;5593952;28;3808579;-89
2021/04/04 07:49:54;;;;;;;;;8.75;8.00;;;;;13.36;33.21;99111.53;5615644;28;3787745;-89
2021/04/04 07:53:15;;;;;;;;;9.33;9.00;;;;;14.24;33.13;99159.31;5594676;28;5611683;-89
2021/04/04 07:56:32;;;;;;;;;10.83;10.00;;;;;15.14;31.49;99233.66;5580087;28;4947051;-90
2021/04/04 07:59:41;;;;;;;;;9.40;8.40;;;;;15.71;31.19;99211.03;5582102;28;4887746;-90
2021/04/04 08:02:50;;;;;;;;;7.00;7.00;;;;;14.98;29.12;99006.38;5584926;28;4857483;-90
2021/04/04 08:06:07;;;;;;;;;8.88;7.13;;;;;15.89;29.28;99187.13;5612703;28;4856785;-90
2021/04/04 08:09:25;;;;;;;;;9.80;8.80;;;;;15.69;29.98;99211.28;5597424;28;4900162;-90
2021/04/04 08:12:49;;;;;;;;;9.00;7.60;;;;;15.78;30.24;99214.44;5581953;28;4862720;-91
2021/04/04 08:16:05;;;;;;;;;9.60;7.60;;;;;15.85;30.52;99239.53;5591763;28;4894969;-91
2021/04/04 08:19:42;;;;;;;;;10.60;9.00;;;;;15.63;31.02;99239.47;5599941;28;4890779;-90
2021/04/04 08:22:59;;;;;;;;;10.83;10.83;;;;;14.61;30.52;99119.16;5600581;28;5665808;-90
2021/04/04 08:26:07;;;;;;;;;11.00;9.40;;;;;15.37;30.52;99183.00;5597111;28;4926279;-90
2021/04/04 08:29:16;;;;;;;;;12.00;10.00;;;;;16.06;29.68;99244.25;5588452;28;4947024;-91
2021/04/04 08:32:27;;;;;;;;;9.00;8.80;;;;;16.06;29.85;99189.84;5591948;28;4886653;-90
2021/04/04 08:35:36;;;;;;;;;10.00;9.00;;;;;17.11;29.23;99245.94;5600710;28;4240888;-90
2021/04/04 08:38:42;;;;;;;;;9.83;8.83;;;;;17.80;28.75;99241.47;5593108;28;5615731;-91
2021/04/04 08:41:47;;;;;;;;;7.00;6.00;;;;;17.66;27.47;99085.69;5590695;28;4857503;-91
2021/04/04 08:44:59;;;;;;;;;8.00;7.60;;;;;18.27;25.56;99135.16;5632370;28;4862667;-91
2021/04/04 08:48:06;;;;;;;;;7.80;7.80;;;;;19.42;25.69;99242.38;5618506;28;4867178;-92
2021/04/04 08:51:22;;;;;;;;;7.00;7.00;;;;;18.63;26.13;99151.69;5614294;28;4872034;-91
2021/04/04 08:54:30;;;;;;;;;9.40;9.00;;;;;18.45;25.89;99199.38;5612127;28;4175255;-90
2021/04/04 08:57:37;;;;;;;;;8.00;7.20;;;;;18.13;26.17;99216.63;5587362;28;4851253;-90
2021/04/04 09:00:41;;;;;;;;;6.40;6.40;;;;;17.95;26.73;99225.25;5577755;28;4859519;-90
2021/04/04 09:03:49;;;;;;;;;7.00;7.00;;;;;17.43;26.91;99180.59;5589538;28;4857472;-90
2021/04/04 09:07:00;;;;;;;;;8.00;8.00;;;;;16.61;27.38;99101.88;5587217;28;4856418;-90
2021/04/04 09:10:06;;;;;;;;;9.00;9.00;;;;;17.67;27.37;99190.94;5597382;28;4154482;-91
2021/04/04 09:13:15;;;;;;;;;8.63;8.63;;;;;17.55;26.84;99222.13;5604243;28;3792374;-91
2021/04/04 09:16:19;;;;;;;;;9.40;9.00;;;;;17.13;27.37;99211.09;5582242;28;4879357;-90
2021/04/04 09:19:28;;;;;;;;;9.00;8.00;;;;;17.14;27.95;99232.66;5582587;28;4860707;-91
2021/04/04 09:22:32;;;;;;;;;10.00;8.00;;;;;16.61;27.85;99218.94;5596355;28;3359719;-91
2021/04/04 09:25:39;;;;;;;;;9.00;8.40;;;;;16.42;28.16;99232.78;5591233;28;4857451;-92
2021/04/04 09:28:45;;;;;;;;;10.00;8.00;;;;;15.92;28.68;99221.19;5605591;28;4915821;-91
2021/04/04 09:31:51;;;;;;;;;6.00;6.00;;;;;15.73;28.35;99226.06;5606354;28;4865812;-90
2021/04/04 09:34:55;;;;;;;;;9.17;7.50;;;;;15.95;28.38;99226.94;5593583;28;4902357;-91
2021/04/04 09:38:01;;;;;;;;;5.00;5.00;;;;;16.16;28.75;99132.06;5592329;28;4154436;-90
2021/04/04 09:41:08;;;;;;;;;5.40;4.00;;;;;16.92;26.98;99122.91;5615008;28;4163097;-93
2021/04/04 09:44:17;;;;;;;;;3.00;3.00;;;;;18.16;23.88;99227.03;5607263;28;4864814;-91
2021/04/04 09:47:34;;;;;;;;;4.00;4.00;;;;;18.97;22.11;99196.59;5602536;28;3126293;-93
2021/04/04 09:50:38;;;;;;;;;5.00;4.40;;;;;19.53;22.84;99219.47;5584343;28;4857507;-93
2021/04/04 09:53:42;;;;;;;;;7.00;7.00;;;;;19.11;24.11;99216.84;5575050;28;4857472;-91
2021/04/04 09:56:47;;;;;;;;;7.00;7.00;;;;;18.67;24.06;99215.63;5586356;28;4868946;-91
2021/04/04 09:59:55;;;;;;;;;9.00;8.60;;;;;18.21;24.51;99217.25;5577740;28;4874177;-91
2021/04/04 10:03:10;;;;;;;;;7.00;7.00;;;;;16.89;24.73;99109.81;5583339;28;4856481;-91
2021/04/04 10:06:14;;;;;;;;;5.00;5.00;;;;;17.26;25.82;99218.84;5582308;28;4859558;-91
2021/04/04 10:09:17;;;;;;;;;6.80;6.20;;;;;17.05;25.43;99215.13;5577372;28;4858484;-92
2021/04/04 10:12:24;;;;;;;;;6.00;5.00;;;;;16.29;25.42;99131.66;5598929;28;4862765;-91
2021/04/04 10:15:45;;;;;;;;;4.78;4.00;;;;;16.57;25.76;99212.28;5633697;28;4841804;-91
2021/04/04 10:19:04;;;;;;;;;5.00;5.00;;;;;15.94;26.47;99149.16;5623629;28;3785692;-92
2021/04/04 10:22:07;;;;;;;;;6.00;5.60;;;;;14.93;27.12;99017.16;5574005;28;4139771;-91
2021/04/04 10:25:13;;;;;;;;;6.60;6.60;;;;;16.10;27.49;99179.28;5597747;28;4273089;-91
2021/04/04 10:28:16;;;;;;;;;6.60;6.00;;;;;15.76;27.02;99146.72;5587155;28;4858508;-92
2021/04/04 10:31:24;;;;;;;;;6.00;6.00;;;;;15.11;26.98;99040.50;5621458;28;4857475;-92
2021/04/04 10:34:45;;;;;;;;;6.00;6.00;;;;;16.07;27.23;99198.84;5586146;28;4148710;-92
2021/04/04 10:38:02;;;;;;;;;6.40;6.00;;;;;15.83;27.59;99154.72;5595215;28;4410642;-91
2021/04/04 10:41:09;;;;;;;;;4.33;4.33;;;;;16.06;26.00;99189.84;5644030;28;4149160;-91
2021/04/04 10:44:21;;;;;;;;;4.00;4.00;;;;;16.00;25.80;99193.56;5585927;28;4870989;-91
2021/04/04 10:47:25;;;;;;;;;4.67;4.67;;;;;15.50;25.99;99125.59;5590988;28;4864786;-91
2021/04/04 10:50:29;;;;;;;;;7.00;5.00;;;;;15.58;25.99;99168.72;5581938;28;4855518;-91
2021/04/04 10:53:38;;;;;;;;;5.70;4.70;;;;;15.06;26.55;99078.44;5627461;28;4871075;-91
2021/04/04 10:56:43;;;;;;;;;7.20;7.20;;;;;15.08;28.18;99122.47;5591154;28;4166901;-92
2021/04/04 10:59:47;;;;;;;;;6.00;5.40;;;;;14.49;29.15;99100.22;5592357;28;4848145;-92
2021/04/04 11:02:51;;;;;;;;;7.00;6.00;;;;;14.73;29.52;99156.03;5592335;28;4863741;-91
2021/04/04 11:05:57;;;;;;;;;9.00;9.00;;;;;14.81;29.87;99181.97;5587898;28;4879452;-91
2021/04/04 11:09:02;;;;;;;;;8.33;7.33;;;;;14.51;30.24;99152.34;5593129;28;4872025;-91
2021/04/04 11:12:11;;;;;;;;;7.00;7.00;;;;;14.70;30.27;99172.81;5635630;28;4863710;-92
2021/04/04 11:15:16;;;;;;;;;8.40;7.80;;;;;14.27;29.69;99108.13;5591811;28;4851560;-91
2021/04/04 11:18:28;;;;;;;;;9.00;9.00;;;;;14.59;30.23;99170.13;5591318;28;4868961;-91
2021/04/04 11:21:40;;;;;;;;;7.11;6.89;;;;;14.44;30.09;99161.69;5628201;28;4868549;-91
2021/04/04 11:24:55;;;;;;;;;7.60;7.00;;;;;13.68;39.19;99098.44;5603907;28;4856390;-92
2021/04/04 11:28:14;;;;;;;;;8.80;8.20;;;;;13.63;34.36;99073.97;5576355;28;4884593;-90
2021/04/04 11:31:25;;;;;;;;;6.75;6.00;;;;;12.91;30.65;98934.47;5595861;28;4148115;-91
2021/04/04 11:34:31;;;;;;;;;7.00;6.60;;;;;14.46;30.79;99159.56;5581480;28;4863777;-91
2021/04/04 11:37:39;;;;;;;;;6.00;6.00;;;;;13.30;30.16;98968.13;5590756;28;4861670;-90
2021/04/04 11:40:44;;;;;;;;;7.00;5.00;;;;;14.21;30.27;99111.00;5585171;28;4137661;-91
2021/04/04 11:43:53;;;;;;;;;6.00;5.78;;;;;14.70;30.22;99156.53;5616214;28;4855373;-91
2021/04/04 11:46:58;;;;;;;;;7.17;6.67;;;;;14.81;29.60;99148.59;5565281;28;4860643;-91
2021/04/04 11:50:27;;;;;;;;;6.11;6.00;;;;;15.02;29.25;99143.28;5626806;28;4829427;-92
2021/04/04 11:53:43;;;;;;;;;5.00;5.00;;;;;15.30;28.01;99133.41;5608766;28;4140845;-91
2021/04/04 11:56:49;;;;;;;;;4.60;4.00;;;;;15.18;27.62;99107.19;5606961;28;4866901;-91
2021/04/04 11:59:55;;;;;;;;;6.80;6.00;;;;;15.63;27.52;99129.94;5589433;28;4861708;-92
2021/04/04 12:03:00;;;;;;;;;7.00;6.00;;;;;15.57;27.47;99102.66;5590609;28;4859555;-91
2021/04/04 12:06:13;;;;;;;;;6.40;5.40;;;;;16.23;26.25;99086.41;5586568;28;4141897;-92
2021/04/04 12:09:17;;;;;;;;;7.40;6.40;;;;;16.61;25.11;99003.91;5596479;28;4870043;-91
2021/04/04 12:12:21;;;;;;;;;5.80;5.00;;;;;18.25;24.27;99133.75;5586296;28;4860651;-91
2021/04/04 12:15:27;;;;;;;;;5.40;5.40;;;;;18.54;23.01;99092.16;5582671;28;4838020;-92
2021/04/04 12:18:30;;;;;;;;;5.00;5.00;;;;;19.23;23.34;99107.28;5585909;28;4863764;-92
2021/04/04 12:21:48;;;;;;;;;6.80;5.80;;;;;19.11;22.62;99104.81;5619808;28;4142023;-91
2021/04/04 12:24:53;;;;;;;;;7.40;7.00;;;;;19.53;22.38;99088.19;5564226;28;4856429;-91
2021/04/04 12:27:58;;;;;;;;;6.00;6.00;;;;;18.51;22.57;98836.03;5575089;28;4148092;-92
2021/04/04 12:31:01;;;;;;;;;5.20;5.20;;;;;19.86;21.27;99015.63;5600040;28;4854355;-91
2021/04/04 12:34:10;;;;;;;;;5.00;5.00;;;;;20.61;21.18;99052.81;5643201;28;4859539;-91
2021/04/04 12:37:20;;;;;;;;;5.50;4.80;;;;;20.50;20.77;99021.09;5626705;28;4876328;-91
2021/04/04 12:40:27;;;;;;;;;5.00;5.00;;;;;20.65;20.20;98995.53;5585650;28;4856458;-91
2021/04/04 12:43:38;;;;;;;;;4.00;4.00;;;;;19.78;20.20;98909.50;5596998;28;4162715;-90
2021/04/04 12:46:43;;;;;;;;;4.00;4.00;;;;;20.58;20.94;99050.63;5598040;28;4843938;-91
2021/04/04 12:49:54;;;;;;;;;4.00;4.00;;;;;20.48;21.08;99012.34;5590250;28;4874693;-92
2021/04/04 12:52:57;;;;;;;;;4.00;4.00;;;;;20.52;21.70;99032.59;5609754;28;4843942;-91
2021/04/04 12:56:02;;;;;;;;;4.00;4.00;;;;;19.09;20.82;98855.59;5584925;28;4860616;-91
2021/04/04 12:59:15;;;;;;;;;5.00;5.00;;;;;20.00;21.54;99035.00;5612974;28;4855408;-91
2021/04/04 13:02:20;;;;;;;;;5.60;4.60;;;;;19.43;21.16;99006.97;5599405;28;4154432;-91
2021/04/04 13:05:25;;;;;;;;;6.00;5.00;;;;;19.17;22.04;99032.66;5568010;28;4863736;-91
2021/04/04 13:08:32;;;;;;;;;5.00;4.00;;;;;18.75;21.76;99013.00;5577482;28;4886634;-91
2021/04/04 13:11:40;;;;;;;;;3.80;3.80;;;;;17.63;22.70;98919.91;5560295;28;4860643;-91
2021/04/04 13:14:45;;;;;;;;;5.00;4.00;;;;;17.70;23.51;98950.47;5589811;28;4140786;-91
2021/04/04 13:17:51;;;;;;;;;6.00;5.00;;;;;17.96;24.15;99037.84;5581150;28;4869999;-91
2021/04/04 13:20:57;;;;;;;;;6.00;5.00;;;;;16.33;24.93;98826.19;5582609;28;4158580;-91
2021/04/04 13:24:15;;;;;;;;;6.00;5.00;;;;;16.71;24.44;98917.66;5616531;28;4862680;-91
2021/04/04 13:27:21;;;;;;;;;5.00;4.80;;;;;17.31;25.10;99033.59;5581811;28;4871060;-91
2021/04/04 13:30:27;;;;;;;;;3.20;3.00;;;;;16.49;25.43;98925.09;5598228;28;4857491;-91
2021/04/04 13:33:30;;;;;;;;;4.17;4.17;;;;;16.54;25.36;98951.53;5592116;28;4848133;-91
2021/04/04 13:36:38;;;;;;;;;5.00;4.60;;;;;16.84;24.94;99030.78;5587689;28;4851234;-91
2021/04/04 13:39:42;;;;;;;;;7.00;6.00;;;;;16.18;25.00;98925.88;5566606;28;4856414;-91
2021/04/04 13:42:52;;;;;;;;;5.20;5.20;;;;;16.54;24.67;98995.06;5576076;28;4848134;-91
2021/04/04 13:45:55;;;;;;;;;5.00;5.00;;;;;16.26;25.03;98958.91;5594804;28;4879330;-91
2021/04/04 13:49:01;;;;;;;;;4.00;4.00;;;;;16.19;25.36;98935.69;5567202;28;4874130;-91
2021/04/04 13:52:13;;;;;;;;;7.17;6.33;;;;;16.75;25.25;99005.94;5568359;28;4858513;-91
2021/04/04 13:55:26;;;;;;;;;5.63;5.00;;;;;16.32;25.43;98968.72;5609126;28;3792943;-91
2021/04/04 13:58:36;;;;;;;;;6.00;6.00;;;;;16.51;25.46;98987.44;5610190;28;4850179;-91
2021/04/04 14:01:43;;;;;;;;;4.33;4.00;;;;;16.47;25.53;98971.59;5575210;28;4104373;-91
2021/04/04 14:04:51;;;;;;;;;6.56;6.56;;;;;14.32;25.81;98677.03;5599678;28;4857503;-91
2021/04/04 14:08:04;;;;;;;;;5.00;5.00;;;;;16.10;26.17;98969.88;5612971;28;4324213;-91
2021/04/04 14:11:14;;;;;;;;;5.00;4.00;;;;;15.85;26.32;98963.06;5590228;28;4882427;-91
2021/04/04 14:14:18;;;;;;;;;6.00;6.00;;;;;15.87;26.43;98963.63;5587349;28;3117941;-91
2021/04/04 14:17:24;;;;;;;;;4.75;4.00;;;;;15.94;26.41;98993.34;5599966;28;4151226;-91
2021/04/04 14:20:27;;;;;;;;;6.00;4.20;;;;;15.88;26.64;98978.06;5564840;28;4867941;-91
2021/04/04 14:23:32;;;;;;;;;6.00;6.00;;;;;15.83;26.54;98981.50;5565208;28;4860604;-90
2021/04/04 14:26:36;;;;;;;;;7.00;5.00;;;;;15.17;26.83;98896.41;5596468;28;4140832;-91
2021/04/04 14:29:41;;;;;;;;;5.00;5.00;;;;;15.52;27.09;98972.16;5589438;28;4850208;-91
2021/04/04 14:32:49;;;;;;;;;7.00;7.00;;;;;14.13;26.68;98731.78;5629418;28;4866151;-91
2021/04/04 14:35:52;;;;;;;;;7.00;7.00;;;;;15.62;26.34;98946.19;5581859;28;4857468;-90
2021/04/04 14:38:57;;;;;;;;;8.00;7.00;;;;;15.78;26.48;98972.50;5588892;28;4407517;-92
2021/04/04 14:42:03;;;;;;;;;5.20;4.80;;;;;15.20;26.60;98913.28;5606568;28;4873138;-92